OETB

Tabuk Regional Airport

Airport
ICAO code
OETB
Summary
ICAO Region
MID
ICAO Territory
Location

Tabuk,

Coordinates
28° 22' 12" N , 36° 36' 5" E
KCC
Metar
Observation
OETB 312000Z 34004KT CAVOK 11/M07 Q1013 NOSIG
Station
Tabuk
Date/Time
2023-01-31 20:00:00
Wind direction
340°
Wind speed
04 kts
Lowest cloud amount
clouds and visibility OK
Temperature
11°C
Dew point
-7°C
Humidity
27%
QNH
1013 hPa
Weather condition
n/a

Description

International airport situated 5 km east of Tabuk, Saudi Arabia.

Climatology

Hot Desert Climate (Köppen climate classification BWh) - Hot desert climates are typically found in the subtropics where there is unbroken sunshine for the whole year due to the stable descending air and high pressure, little or no precipitation. Maximum temperatures of 40°C to 45°C are not uncommon, particularly during the warmer months of the year. During colder periods of the year, night-time temperatures can drop to freezing or below due to the exceptional radiation loss under the clear skies. However, very rarely do temperatures drop far below freezing.

Runways

Designator Length Width Surface Rops
13/31 3050 45 ASP No/No
6/24 3350 45 ASP No/No

Airport map

Aerial View

SKYbrary Partners:

Safety knowledge contributed by: